Time;durP1;ratioP1;P1;durP2;ratioP2;P2;SDS_P1;SDS_P2;PMS_P1;PMS_P2;Temp;Humidity;BMP_temperature;BMP_pressure;BME280_temperature;BME280_humidity;BME280_pressure;Samples;Min_cycle;Max_cycle;Signal;HPM_P1;HPM_P2
2023/10/25 00:02:17;;;;;;;5.82;1.33;;;;;;;20.81;76.95;99393.53;5113534;28;20208;-79
2023/10/25 00:04:44;;;;;;;2.95;1.52;;;;;;;20.87;76.78;99403.84;5077656;28;20193;-79
2023/10/25 00:07:10;;;;;;;3.80;1.30;;;;;;;20.85;76.71;99408.34;5114034;28;20205;-79
2023/10/25 00:09:39;;;;;;;4.05;1.17;;;;;;;20.85;76.84;99402.19;5078120;28;20193;-79
2023/10/25 00:12:06;;;;;;;2.53;0.95;;;;;;;20.84;76.50;99379.38;5113061;28;20201;-79
2023/10/25 00:14:32;;;;;;;1.30;1.15;;;;;;;20.91;76.84;99391.41;5113445;28;20208;-79
2023/10/25 00:16:59;;;;;;;3.63;1.20;;;;;;;20.85;77.22;99395.16;5094265;28;20196;-80
2023/10/25 00:19:26;;;;;;;4.10;1.17;;;;;;;20.83;77.72;99389.09;5077428;28;20197;-86
2023/10/25 00:21:53;;;;;;;3.65;1.27;;;;;;;20.78;77.87;99380.50;5113020;28;20194;-79
2023/10/25 00:24:19;;;;;;;4.07;1.13;;;;;;;20.84;78.94;99372.34;5113291;28;20202;-79
2023/10/25 00:26:47;;;;;;;4.07;1.30;;;;;;;20.77;79.31;99365.59;5113307;28;20220;-79
2023/10/25 00:29:14;;;;;;;4.78;1.20;;;;;;;20.80;79.10;99365.47;5101933;28;20217;-79
2023/10/25 00:31:41;;;;;;;2.20;1.05;;;;;;;20.60;79.36;99323.22;5093058;28;20209;-79
2023/10/25 00:34:08;;;;;;;2.40;0.90;;;;;;;20.75;79.10;99349.84;5093038;28;20226;-80
2023/10/25 00:36:35;;;;;;;2.22;0.85;;;;;;;20.80;79.28;99356.72;5092733;28;20202;-79
2023/10/25 00:39:02;;;;;;;4.07;1.27;;;;;;;20.86;79.34;99354.72;5104464;28;20266;-79
2023/10/25 00:41:28;;;;;;;10.25;2.97;;;;;;;20.92;79.00;99353.59;5112200;28;20217;-79
2023/10/25 00:43:56;;;;;;;3.70;1.15;;;;;;;20.93;78.98;99350.94;5113106;28;20204;-79
2023/10/25 00:46:25;;;;;;;5.43;1.38;;;;;;;20.98;78.97;99363.91;5093777;28;20214;-77
2023/10/25 00:48:55;;;;;;;4.38;1.20;;;;;;;21.02;78.72;99366.38;5117077;28;20205;-78
2023/10/25 00:51:23;;;;;;;4.07;1.38;;;;;;;21.00;81.14;99360.31;5080861;28;20214;-79
2023/10/25 00:53:52;;;;;;;4.65;1.27;;;;;;;20.73;81.79;99327.09;5116106;28;20225;-79
2023/10/25 00:56:22;;;;;;;5.55;1.33;;;;;;;20.84;81.84;99363.56;5113021;28;20208;-79
2023/10/25 00:58:50;;;;;;;3.10;1.05;;;;;;;20.53;81.23;99325.22;5120989;28;20204;-80
2023/10/25 01:01:20;;;;;;;3.45;0.82;;;;;;;20.83;81.28;99353.97;5117249;28;20733;-79
2023/10/25 01:03:47;;;;;;;5.05;1.63;;;;;;;20.68;81.71;99364.19;5119728;28;20220;-78
2023/10/25 01:06:14;;;;;;;7.65;1.45;;;;;;;20.70;83.30;99386.03;5118576;28;20203;-80
2023/10/25 01:08:41;;;;;;;3.90;1.25;;;;;;;20.53;85.54;99387.59;5105662;28;20198;-79
2023/10/25 01:11:08;;;;;;;2.92;1.02;;;;;;;20.34;87.63;99375.97;5096907;28;20198;-79
2023/10/25 01:13:35;;;;;;;4.93;1.23;;;;;;;20.07;91.05;99394.47;5096461;28;20230;-78
2023/10/25 01:16:02;;;;;;;3.03;1.10;;;;;;;19.89;91.29;99381.94;5096935;28;20206;-79
2023/10/25 01:18:30;;;;;;;0.60;0.60;;;;;;;19.93;90.08;99391.44;5106784;28;20584;-79
2023/10/25 01:20:57;;;;;;;2.67;1.00;;;;;;;19.80;90.33;99392.75;5117427;28;20200;-79
2023/10/25 01:23:25;;;;;;;5.68;1.42;;;;;;;19.80;91.40;99396.22;5116770;28;20208;-79
2023/10/25 01:25:51;;;;;;;7.65;2.58;;;;;;;19.72;90.74;99389.53;5116989;28;20201;-78
2023/10/25 01:28:18;;;;;;;8.65;1.65;;;;;;;19.19;91.81;99357.88;5117370;28;20271;-78
2023/10/25 01:30:45;;;;;;;4.68;1.58;;;;;;;19.44;92.87;99402.69;5117732;28;20197;-78
2023/10/25 01:33:12;;;;;;;4.57;1.10;;;;;;;19.21;94.37;99395.50;5116574;28;20655;-77
2023/10/25 01:35:39;;;;;;;4.60;1.58;;;;;;;19.14;94.97;99383.47;5117618;28;20205;-79
2023/10/25 01:38:06;;;;;;;6.70;1.38;;;;;;;18.90;95.81;99359.72;5117403;28;20301;-79
2023/10/25 01:40:34;;;;;;;4.78;1.20;;;;;;;18.97;97.47;99384.88;5116700;28;20774;-79
2023/10/25 01:43:01;;;;;;;3.10;1.00;;;;;;;18.83;98.85;99391.38;5116791;28;20201;-79
2023/10/25 01:45:28;;;;;;;4.05;1.20;;;;;;;18.73;99.30;99383.81;5116610;28;20197;-79
2023/10/25 01:47:54;;;;;;;3.30;1.00;;;;;;;18.50;100.00;99362.59;5120294;28;20677;-79
2023/10/25 01:50:21;;;;;;;4.10;1.10;;;;;;;18.57;100.00;99378.19;5129476;28;20209;-80
2023/10/25 01:52:48;;;;;;;5.40;1.38;;;;;;;18.41;99.69;99389.13;5128527;28;20225;-79
2023/10/25 01:55:15;;;;;;;5.32;1.27;;;;;;;18.23;100.00;99408.84;5126890;27;20208;-78
2023/10/25 01:57:44;;;;;;;4.10;1.10;;;;;;;18.09;100.00;99416.22;5079275;28;21493;-77
2023/10/25 02:00:12;;;;;;;6.03;1.38;;;;;;;18.02;100.00;99412.03;5116182;28;20198;-78
2023/10/25 02:02:39;;;;;;;5.25;1.38;;;;;;;17.96;100.00;99405.19;5115872;28;20194;-77
2023/10/25 02:05:06;;;;;;;5.07;1.10;;;;;;;17.78;100.00;99387.28;5112884;28;20250;-78
2023/10/25 02:07:33;;;;;;;4.40;1.25;;;;;;;17.84;100.00;99403.72;5115255;28;20194;-78
2023/10/25 02:10:00;;;;;;;2.05;0.82;;;;;;;17.62;100.00;99365.81;5105786;28;20211;-78
2023/10/25 02:12:26;;;;;;;3.25;1.15;;;;;;;17.69;100.00;99392.78;5095144;28;20206;-79
2023/10/25 02:14:54;;;;;;;3.50;1.13;;;;;;;17.70;100.00;99369.13;5094766;28;20237;-79
2023/10/25 02:17:22;;;;;;;10.27;2.10;;;;;;;17.59;100.00;99381.63;5095745;28;20224;-79
2023/10/25 02:19:48;;;;;;;5.47;1.67;;;;;;;17.49;100.00;99371.38;5115102;28;20285;-78
2023/10/25 02:22:15;;;;;;;4.00;1.15;;;;;;;17.53;100.00;99368.66;5116091;28;20201;-78
2023/10/25 02:24:42;;;;;;;3.45;1.13;;;;;;;17.48;100.00;99364.44;5115726;28;20230;-78
2023/10/25 02:27:08;;;;;;;2.97;1.05;;;;;;;17.48;100.00;99360.03;5115956;28;20640;-80
2023/10/25 02:29:35;;;;;;;4.40;1.15;;;;;;;17.35;100.00;99356.88;5114924;28;20607;-80
2023/10/25 02:32:07;;;;;;;3.15;1.38;;;;;;;17.61;100.00;99368.50;5114346;28;20271;-77
2023/10/25 02:34:35;;;;;;;3.97;1.17;;;;;;;17.66;100.00;99366.59;5080324;28;20225;-76
2023/10/25 02:37:02;;;;;;;3.92;1.33;;;;;;;17.68;100.00;99370.94;5113954;28;20634;-78
2023/10/25 02:39:29;;;;;;;5.32;1.30;;;;;;;17.73;100.00;99378.66;5114930;28;20733;-77
2023/10/25 02:41:55;;;;;;;2.20;0.98;;;;;;;17.81;100.00;99368.84;5114914;28;20230;-80
2023/10/25 02:44:22;;;;;;;4.13;1.55;;;;;;;17.78;100.00;99361.94;5113984;28;20208;-79
2023/10/25 02:46:49;;;;;;;3.25;1.17;;;;;;;17.87;100.00;99358.22;5114906;28;20596;-78
2023/10/25 02:49:17;;;;;;;4.97;1.25;;;;;;;17.92;100.00;99356.31;5078235;28;20612;-80
2023/10/25 02:51:44;;;;;;;3.72;1.10;;;;;;;17.78;100.00;99319.13;5115999;28;20209;-78
2023/10/25 02:54:11;;;;;;;4.03;1.10;;;;;;;17.86;100.00;99332.88;5115611;28;20225;-82
2023/10/25 02:56:37;;;;;;;1.35;0.90;;;;;;;17.70;100.00;99339.41;5115533;28;20212;-76
2023/10/25 02:59:04;;;;;;;5.75;1.40;;;;;;;17.79;100.00;99347.06;5113815;28;20189;-77
2023/10/25 03:01:31;;;;;;;3.58;1.10;;;;;;;17.72;100.00;99350.75;5115138;28;20214;-77
2023/10/25 03:03:58;;;;;;;3.53;1.20;;;;;;;17.76;100.00;99353.22;5114831;28;20216;-77
2023/10/25 03:06:26;;;;;;;3.70;1.13;;;;;;;17.83;100.00;99348.72;5115455;28;20202;-78
2023/10/25 03:08:53;;;;;;;2.03;1.23;;;;;;;17.86;100.00;99359.13;5114523;28;20198;-78
2023/10/25 03:11:20;;;;;;;3.20;1.00;;;;;;;17.81;100.00;99345.25;5115644;28;20194;-78
2023/10/25 03:13:47;;;;;;;6.10;2.13;;;;;;;17.92;100.00;99352.84;5114173;28;20225;-76
2023/10/25 03:16:14;;;;;;;3.38;1.20;;;;;;;18.00;100.00;99325.50;5114483;28;20262;-77
2023/10/25 03:18:41;;;;;;;1.63;1.10;;;;;;;18.03;100.00;99317.56;5114998;28;20308;-78
2023/10/25 03:21:08;;;;;;;5.95;1.63;;;;;;;18.09;100.00;99320.00;5114716;28;20193;-76
2023/10/25 03:23:36;;;;;;;3.28;1.20;;;;;;;18.10;100.00;99311.25;5113198;28;20202;-75
2023/10/25 03:26:06;;;;;;;1.30;0.82;;;;;;;18.11;100.00;99306.84;5112745;28;20612;-76
2023/10/25 03:28:33;;;;;;;3.95;1.30;;;;;;;17.87;100.00;99287.41;5113165;28;20591;-76
2023/10/25 03:31:04;;;;;;;3.70;1.00;;;;;;;18.00;100.00;99315.03;5113106;28;20209;-77
2023/10/25 03:33:31;;;;;;;3.53;1.27;;;;;;;18.03;100.00;99314.94;5112870;28;20884;-76
2023/10/25 03:35:58;;;;;;;2.75;1.05;;;;;;;18.12;100.00;99309.41;5113428;28;20209;-76
2023/10/25 03:38:25;;;;;;;3.30;1.15;;;;;;;18.12;100.00;99319.91;5113238;28;20202;-77
2023/10/25 03:41:02;;;;;;;4.00;1.17;;;;;;;18.21;100.00;99317.03;5110081;28;20237;-76
2023/10/25 03:43:28;;;;;;;2.78;1.00;;;;;;;18.20;100.00;99332.81;5107715;28;20242;-76
2023/10/25 03:45:55;;;;;;;3.22;1.33;;;;;;;18.18;100.00;99314.50;5111992;28;20205;-76
2023/10/25 03:48:22;;;;;;;3.78;2.45;;;;;;;18.21;100.00;99332.78;5109773;28;20201;-77
2023/10/25 03:50:49;;;;;;;7.68;2.10;;;;;;;18.20;100.00;99333.69;5113062;28;20202;-76
2023/10/25 03:53:17;;;;;;;5.13;1.48;;;;;;;18.07;100.00;99329.69;5113133;28;20197;-82
2023/10/25 03:55:53;;;;;;;5.50;1.33;;;;;;;18.20;100.00;99344.19;5114021;27;20202;-77
2023/10/25 03:58:21;;;;;;;5.75;1.50;;;;;;;18.12;100.00;99340.06;5113342;28;20644;-78
2023/10/25 04:00:47;;;;;;;1.95;1.08;;;;;;;18.01;100.00;99331.63;5113134;28;20208;-78
2023/10/25 04:03:14;;;;;;;3.45;1.27;;;;;;;18.01;100.00;99323.75;5113002;28;20592;-78
2023/10/25 04:05:41;;;;;;;3.72;1.50;;;;;;;17.78;100.00;99288.50;5113228;28;20198;-78
2023/10/25 04:08:08;;;;;;;4.50;1.25;;;;;;;17.97;100.00;99309.00;5112693;28;20209;-78
2023/10/25 04:10:35;;;;;;;3.10;1.20;;;;;;;17.83;100.00;99291.03;5113500;28;20201;-78
2023/10/25 04:13:02;;;;;;;1.85;1.20;;;;;;;17.91;100.00;99304.75;5113133;28;20234;-78
2023/10/25 04:15:34;;;;;;;4.43;1.80;;;;;;;17.76;100.00;99299.94;5113077;28;20316;-78
2023/10/25 04:18:02;;;;;;;3.95;1.50;;;;;;;17.75;100.00;99329.69;5112658;28;20324;-78
2023/10/25 04:20:32;;;;;;;3.60;1.42;;;;;;;17.77;100.00;99322.63;5112893;28;20284;-78
2023/10/25 04:22:59;;;;;;;1.88;1.00;;;;;;;17.69;100.00;99322.00;5112952;28;20237;-78
2023/10/25 04:25:26;;;;;;;4.85;1.63;;;;;;;17.63;100.00;99330.84;5112379;28;20201;-77
2023/10/25 04:27:53;;;;;;;2.88;1.10;;;;;;;17.66;100.00;99320.28;5113073;28;20215;-78
2023/10/25 04:30:20;;;;;;;3.72;1.30;;;;;;;17.65;100.00;99312.47;5112903;28;20208;-77
2023/10/25 04:32:48;;;;;;;4.22;1.33;;;;;;;17.65;100.00;99317.72;5112341;28;20193;-78
2023/10/25 04:35:15;;;;;;;2.92;1.17;;;;;;;17.57;100.00;99306.56;5112653;28;20229;-78
2023/10/25 04:37:41;;;;;;;3.20;1.00;;;;;;;17.48;100.00;99281.41;5113020;28;21996;-77
2023/10/25 04:40:10;;;;;;;4.55;1.20;;;;;;;17.43;100.00;99269.34;5113078;28;20239;-78
2023/10/25 04:42:36;;;;;;;4.10;1.85;;;;;;;17.24;100.00;99264.56;5112859;28;20216;-78
2023/10/25 04:45:03;;;;;;;3.88;2.15;;;;;;;17.23;100.00;99257.59;5112670;28;20193;-77
2023/10/25 04:47:30;;;;;;;3.50;1.08;;;;;;;17.24;100.00;99264.56;5112555;28;20201;-77
2023/10/25 04:50:01;;;;;;;3.95;1.23;;;;;;;17.21;100.00;99245.44;5112677;28;20204;-77
2023/10/25 04:52:28;;;;;;;6.97;1.35;;;;;;;17.35;100.00;99257.28;5112921;28;20197;-78
2023/10/25 04:54:55;;;;;;;2.80;0.95;;;;;;;17.50;100.00;99260.41;5113772;28;20228;-78
2023/10/25 04:57:22;;;;;;;5.90;1.52;;;;;;;17.65;100.00;99254.81;5114477;28;20197;-78
2023/10/25 04:59:49;;;;;;;4.97;1.27;;;;;;;17.71;100.00;99249.38;5112785;28;20200;-77
2023/10/25 05:02:16;;;;;;;8.73;1.60;;;;;;;17.74;100.00;99244.06;5077444;28;20587;-78
2023/10/25 05:04:43;;;;;;;3.40;1.02;;;;;;;17.73;100.00;99242.31;5113091;28;20194;-79
2023/10/25 05:07:12;;;;;;;4.78;1.20;;;;;;;17.83;100.00;99239.44;5113981;28;20254;-78
2023/10/25 05:09:39;;;;;;;9.15;1.67;;;;;;;17.83;100.00;99243.81;5113196;28;20202;-77
2023/10/25 05:12:11;;;;;;;4.13;1.15;;;;;;;17.86;100.00;99233.25;5109783;28;20581;-78
2023/10/25 05:14:38;;;;;;;5.82;1.75;;;;;;;17.99;100.00;99250.34;5076721;28;20654;-78
2023/10/25 05:17:06;;;;;;;2.45;0.95;;;;;;;18.03;100.00;99246.72;5112061;28;20205;-78
2023/10/25 05:19:34;;;;;;;2.20;1.00;;;;;;;18.21;100.00;99259.31;5107172;28;20746;-79
2023/10/25 05:22:06;;;;;;;8.75;1.55;;;;;;;18.22;100.00;99249.69;5111235;28;20209;-76
2023/10/25 05:24:35;;;;;;;6.00;1.88;;;;;;;18.25;100.00;99247.84;5064842;28;20254;-76
2023/10/25 05:27:03;;;;;;;1.80;1.35;;;;;;;18.22;100.00;99242.69;5103296;28;20291;-78
2023/10/25 05:29:30;;;;;;;1.65;1.02;;;;;;;18.15;100.00;99230.66;5092266;28;20212;-76
2023/10/25 05:31:59;;;;;;;10.63;2.03;;;;;;;17.89;100.00;99213.91;5110454;28;20216;-78
2023/10/25 05:34:26;;;;;;;3.30;1.15;;;;;;;18.04;100.00;99243.22;5110836;28;20221;-77
2023/10/25 05:36:54;;;;;;;3.40;1.08;;;;;;;17.97;100.00;99252.16;5110689;28;20201;-76
2023/10/25 05:39:21;;;;;;;3.95;1.02;;;;;;;17.84;100.00;99222.78;5111371;28;20193;-82
2023/10/25 05:41:52;;;;;;;7.47;1.58;;;;;;;18.09;100.00;99251.78;5111116;28;20267;-85
2023/10/25 05:44:19;;;;;;;3.10;1.10;;;;;;;17.96;100.00;99254.81;5111091;28;20214;-81
2023/10/25 05:46:46;;;;;;;3.70;1.13;;;;;;;18.09;100.00;99243.06;5075764;28;20209;-80
2023/10/25 05:49:13;;;;;;;2.65;1.17;;;;;;;17.93;100.00;99182.31;5114850;28;20208;-80
2023/10/25 05:51:41;;;;;;;4.57;1.80;;;;;;;18.25;100.00;99210.22;5079877;28;20197;-78
2023/10/25 05:54:09;;;;;;;3.92;1.10;;;;;;;18.39;100.00;99222.94;5080033;28;20245;-83
2023/10/25 05:56:36;;;;;;;3.03;1.00;;;;;;;18.55;100.00;99240.81;5115370;27;20677;-78
2023/10/25 05:59:05;;;;;;;2.50;1.10;;;;;;;18.87;100.00;99233.72;5116297;28;20206;-82
2023/10/25 06:01:39;;;;;;;3.80;1.10;;;;;;;19.08;100.00;99257.53;5115988;28;20209;-82
2023/10/25 06:04:09;;;;;;;2.50;1.60;;;;;;;19.14;100.00;99245.94;5063623;28;20703;-83
2023/10/25 06:06:38;;;;;;;4.00;1.17;;;;;;;19.16;100.00;99234.47;5062235;28;20199;-77
2023/10/25 06:09:06;;;;;;;3.10;1.00;;;;;;;19.25;100.00;99247.31;5107534;28;20209;-77
2023/10/25 06:11:33;;;;;;;4.22;1.13;;;;;;;19.26;100.00;99243.75;5114683;28;20729;-76
2023/10/25 06:14:01;;;;;;;18.60;2.33;;;;;;;19.22;100.00;99242.16;5114674;28;20220;-76
2023/10/25 06:16:29;;;;;;;1.55;0.88;;;;;;;19.36;100.00;99243.47;5096165;28;20201;-79
2023/10/25 06:18:56;;;;;;;4.55;1.13;;;;;;;19.37;100.00;99253.91;5115142;28;20918;-81
2023/10/25 06:21:23;;;;;;;1.73;1.63;;;;;;;19.25;100.00;99267.47;5115737;28;20213;-79
2023/10/25 06:23:51;;;;;;;6.47;1.42;;;;;;;19.25;100.00;99276.22;5115093;28;20209;-77
2023/10/25 06:26:18;;;;;;;3.55;1.00;;;;;;;19.23;100.00;99241.22;5114899;28;20197;-81
2023/10/25 06:28:45;;;;;;;1.75;1.00;;;;;;;19.52;100.00;99244.66;5114673;28;20198;-80
2023/10/25 06:31:14;;;;;;;1.48;1.05;;;;;;;19.71;100.00;99237.88;5114115;28;20201;-80
2023/10/25 06:33:42;;;;;;;1.85;1.00;;;;;;;20.11;100.00;99256.56;5114445;28;20198;-78
2023/10/25 06:36:10;;;;;;;4.80;1.20;;;;;;;20.27;100.00;99257.75;5113956;28;20217;-78
2023/10/25 06:38:38;;;;;;;3.65;1.45;;;;;;;20.49;100.00;99270.97;5076810;28;20210;-81
2023/10/25 06:41:14;;;;;;;4.22;1.42;;;;;;;20.13;100.00;99267.88;5114196;28;20236;-76
2023/10/25 06:43:41;;;;;;;2.90;1.45;;;;;;;19.65;100.00;99265.25;5114156;28;20201;-79
2023/10/25 06:46:09;;;;;;;3.22;1.13;;;;;;;19.80;100.00;99253.31;5113832;28;20216;-81
2023/10/25 06:48:36;;;;;;;4.30;1.20;;;;;;;20.07;100.00;99262.84;5114614;28;20669;-80
2023/10/25 06:51:06;;;;;;;6.53;1.40;;;;;;;20.24;100.00;99265.72;5114571;28;20224;-80
2023/10/25 06:53:33;;;;;;;3.85;1.55;;;;;;;20.39;99.73;99279.25;5113815;28;20668;-75
2023/10/25 06:56:01;;;;;;;8.93;1.73;;;;;;;20.42;99.72;99280.00;5113877;28;20228;-77
2023/10/25 06:58:28;;;;;;;1.33;0.93;;;;;;;20.20;98.07;99285.19;5095943;28;20205;-78
2023/10/25 07:00:57;;;;;;;6.07;1.38;;;;;;;20.10;98.10;99273.28;5114376;28;20197;-77
2023/10/25 07:03:36;;;;;;;5.88;1.65;;;;;;;19.84;100.00;99289.13;5115317;28;20209;-78
2023/10/25 07:06:06;;;;;;;4.90;2.25;;;;;;;19.90;100.00;99270.50;5095265;28;20228;-77
2023/10/25 07:08:33;;;;;;;6.55;1.95;;;;;;;19.60;100.00;99250.53;5114075;28;20197;-79
2023/10/25 07:11:00;;;;;;;3.95;1.25;;;;;;;19.55;100.00;99266.47;5095500;28;20207;-78
2023/10/25 07:13:27;;;;;;;2.70;1.10;;;;;;;19.49;100.00;99292.97;5095172;28;20189;-77
2023/10/25 07:15:54;;;;;;;2.38;1.02;;;;;;;19.51;100.00;99283.25;5113881;28;20261;-78
2023/10/25 07:18:21;;;;;;;5.60;2.25;;;;;;;19.61;100.00;99271.53;5114007;28;20198;-79
2023/10/25 07:20:48;;;;;;;4.32;1.63;;;;;;;19.85;100.00;99277.69;5113749;28;20200;-77
2023/10/25 07:23:16;;;;;;;3.25;1.45;;;;;;;20.15;99.60;99291.53;5113871;28;20201;-78
2023/10/25 07:25:44;;;;;;;2.40;1.02;;;;;;;20.39;97.86;99282.75;5113822;28;20200;-77
2023/10/25 07:28:11;;;;;;;6.20;2.20;;;;;;;20.60;96.94;99286.34;5113954;28;20669;-76
2023/10/25 07:30:38;;;;;;;4.40;1.50;;;;;;;20.80;95.23;99302.22;5113858;28;20205;-78
2023/10/25 07:33:05;;;;;;;3.30;1.00;;;;;;;20.33;95.49;99301.44;5114159;28;20197;-77
2023/10/25 07:35:32;;;;;;;3.03;1.23;;;;;;;20.43;94.90;99286.13;5114054;28;20282;-79
2023/10/25 07:37:59;;;;;;;4.60;1.23;;;;;;;20.68;95.32;99287.78;5078491;28;20197;-76
2023/10/25 07:40:27;;;;;;;3.83;1.20;;;;;;;20.98;93.43;99271.66;5113988;28;20709;-78
2023/10/25 07:42:54;;;;;;;2.70;1.00;;;;;;;21.18;89.33;99291.09;5114517;28;20198;-78
2023/10/25 07:45:21;;;;;;;2.47;1.08;;;;;;;21.23;88.38;99296.13;5114373;28;20231;-77
2023/10/25 07:47:47;;;;;;;3.47;1.15;;;;;;;21.22;88.18;99290.00;5113612;28;20202;-78
2023/10/25 07:50:18;;;;;;;4.68;1.55;;;;;;;21.45;86.28;99285.56;5113624;28;20570;-77
2023/10/25 07:52:45;;;;;;;1.85;0.93;;;;;;;21.40;86.54;99288.41;5113671;28;20223;-78
2023/10/25 07:55:12;;;;;;;0.80;0.73;;;;;;;21.60;84.67;99295.47;5113691;28;20221;-76
2023/10/25 07:57:40;;;;;;;3.47;1.10;;;;;;;21.93;87.24;99288.78;5112990;28;20292;-74
2023/10/25 08:00:09;;;;;;;6.00;1.30;;;;;;;21.93;94.36;99277.38;5112581;28;20193;-78
2023/10/25 08:02:36;;;;;;;2.60;1.00;;;;;;;22.03;83.05;99310.38;5077837;28;20704;-77
2023/10/25 08:05:03;;;;;;;3.00;1.50;;;;;;;22.08;79.85;99303.94;5076908;28;20189;-79
2023/10/25 08:07:31;;;;;;;4.35;2.22;;;;;;;21.89;79.83;99303.03;5077438;28;20673;-79
2023/10/25 08:09:58;;;;;;;1.58;0.80;;;;;;;21.99;80.35;99296.44;5112774;28;20223;-79
2023/10/25 08:12:24;;;;;;;2.20;1.00;;;;;;;22.12;79.09;99297.59;5112107;28;20688;-78
2023/10/25 08:14:53;;;;;;;2.78;1.70;;;;;;;22.02;78.26;99266.41;5093475;28;20229;-81
2023/10/25 08:17:19;;;;;;;1.05;0.90;;;;;;;22.40;78.35;99302.50;5112562;28;20649;-78
2023/10/25 08:19:46;;;;;;;3.05;1.13;;;;;;;22.47;80.08;99287.25;5112388;28;20652;-78
2023/10/25 08:22:13;;;;;;;3.15;1.08;;;;;;;22.64;79.29;99305.81;5112735;28;20757;-76
2023/10/25 08:24:40;;;;;;;2.13;1.20;;;;;;;22.82;79.13;99307.63;5112245;28;20730;-77
2023/10/25 08:27:06;;;;;;;0.77;0.70;;;;;;;23.12;79.58;99319.38;5112974;28;20666;-78
2023/10/25 08:29:33;;;;;;;1.17;0.90;;;;;;;23.22;79.83;99317.16;5114550;28;20662;-77
2023/10/25 08:32:01;;;;;;;1.65;0.82;;;;;;;23.27;79.02;99311.63;5114750;28;20207;-78
2023/10/25 08:34:28;;;;;;;5.18;1.58;;;;;;;23.35;79.08;99322.69;5079938;28;20193;-79
2023/10/25 08:36:56;;;;;;;3.33;1.35;;;;;;;23.42;76.26;99297.69;5094763;28;20229;-78
2023/10/25 08:39:23;;;;;;;6.90;2.45;;;;;;;23.43;70.75;99317.94;5113018;28;20239;-77
2023/10/25 08:41:52;;;;;;;3.75;1.30;;;;;;;23.02;66.98;99323.41;5113144;28;20233;-77
2023/10/25 08:44:19;;;;;;;3.45;1.33;;;;;;;22.86;67.30;99311.84;5114023;28;20201;-79
2023/10/25 08:46:49;;;;;;;3.28;1.20;;;;;;;23.02;65.88;99296.94;5114206;28;20671;-79
2023/10/25 08:49:17;;;;;;;2.35;0.95;;;;;;;23.17;65.01;99314.72;5095732;28;20193;-79
2023/10/25 08:51:46;;;;;;;3.25;1.05;;;;;;;23.26;64.06;99304.66;5115401;28;20656;-78
2023/10/25 08:54:14;;;;;;;4.35;1.20;;;;;;;23.36;63.80;99297.97;5096703;28;20197;-79
2023/10/25 08:56:45;;;;;;;2.38;1.20;;;;;;;23.32;62.71;99304.34;5096270;28;20214;-80
2023/10/25 08:59:12;;;;;;;1.60;1.10;;;;;;;23.35;62.42;99302.41;5115981;28;20274;-76
2023/10/25 09:01:39;;;;;;;2.33;0.90;;;;;;;23.32;62.13;99285.81;5114298;28;20635;-79
2023/10/25 09:04:07;;;;;;;1.80;1.10;;;;;;;23.46;62.12;99296.59;5114111;28;20634;-77
2023/10/25 09:06:35;;;;;;;3.17;1.10;;;;;;;23.50;61.11;99269.91;5114340;28;20243;-78
2023/10/25 09:09:05;;;;;;;1.25;1.20;;;;;;;23.76;61.71;99296.84;5115459;28;20638;-79
2023/10/25 09:11:40;;;;;;;5.97;1.50;;;;;;;23.73;61.77;99266.06;5115831;28;20208;-80
2023/10/25 09:14:07;;;;;;;2.75;1.00;;;;;;;23.85;61.30;99299.88;5115284;28;20247;-81
2023/10/25 09:16:34;;;;;;;3.63;1.15;;;;;;;23.79;60.56;99284.31;5113260;28;20312;-80
2023/10/25 09:19:04;;;;;;;3.17;1.40;;;;;;;23.96;61.16;99294.88;5113916;28;20273;-81
2023/10/25 09:21:30;;;;;;;2.30;1.42;;;;;;;24.12;60.67;99290.47;5116611;28;20225;-80
2023/10/25 09:24:02;;;;;;;3.20;1.10;;;;;;;24.18;58.10;99274.31;5117251;28;20237;-79
2023/10/25 09:26:34;;;;;;;2.92;1.40;;;;;;;24.15;58.27;99255.91;5118336;28;20201;-79
2023/10/25 09:29:01;;;;;;;2.40;1.48;;;;;;;24.40;57.90;99299.66;5118540;27;20708;-80
2023/10/25 09:31:31;;;;;;;4.20;1.92;;;;;;;24.26;58.27;99295.06;5118052;28;20194;-79
2023/10/25 09:34:00;;;;;;;2.28;0.90;;;;;;;24.15;59.29;99293.00;5118210;28;20664;-79
2023/10/25 09:36:28;;;;;;;3.10;1.25;;;;;;;24.26;59.79;99286.28;5118271;28;20229;-79
2023/10/25 09:38:55;;;;;;;2.33;2.00;;;;;;;24.05;60.33;99261.75;5119484;28;20223;-79
2023/10/25 09:41:26;;;;;;;1.92;1.00;;;;;;;24.18;60.74;99286.69;5117532;28;20724;-78
2023/10/25 09:43:58;;;;;;;1.85;0.90;;;;;;;24.12;61.38;99285.19;5117513;27;20201;-79
2023/10/25 09:46:31;;;;;;;1.05;0.85;;;;;;;24.28;61.46;99279.97;5119301;28;20274;-80
2023/10/25 09:49:03;;;;;;;1.80;1.52;;;;;;;24.10;61.11;99218.19;5118568;28;20233;-79
2023/10/25 09:51:54;;;;;;;1.90;1.08;;;;;;;24.67;59.40;99271.63;5115981;28;20208;-79
2023/10/25 09:54:29;;;;;;;2.17;1.08;;;;;;;24.82;57.25;99283.19;5115909;28;20197;-78
2023/10/25 09:56:59;;;;;;;2.30;1.35;;;;;;;24.80;57.09;99251.44;5119423;28;20275;-78
2023/10/25 09:59:27;;;;;;;1.65;1.20;;;;;;;24.98;55.96;99269.00;5116949;28;20206;-78
2023/10/25 10:01:55;;;;;;;2.85;1.00;;;;;;;25.15;55.45;99283.94;5117261;28;20193;-78
2023/10/25 10:04:32;;;;;;;1.27;0.90;;;;;;;25.32;54.11;99290.97;5117858;28;20201;-77
2023/10/25 10:07:09;;;;;;;1.17;0.95;;;;;;;25.05;56.08;99310.16;5118089;28;20674;-79
2023/10/25 10:09:42;;;;;;;3.78;1.73;;;;;;;24.30;61.62;99293.13;5115669;28;20204;-80
2023/10/25 10:12:11;;;;;;;5.32;1.98;;;;;;;24.44;62.35;99303.81;5116184;28;20327;-81
2023/10/25 10:14:39;;;;;;;2.22;0.98;;;;;;;24.32;61.11;99323.91;5116039;27;20202;-78
2023/10/25 10:17:08;;;;;;;4.43;2.45;;;;;;;24.55;59.24;99312.06;5115539;28;20286;-81
2023/10/25 10:19:39;;;;;;;3.63;1.15;;;;;;;24.57;59.35;99323.44;5115318;28;20202;-76
2023/10/25 10:22:07;;;;;;;3.33;2.47;;;;;;;24.63;58.40;99315.16;5114768;28;20577;-78
2023/10/25 10:24:45;;;;;;;2.40;1.75;;;;;;;24.67;58.26;99317.56;5114945;28;20252;-79
2023/10/25 10:27:15;;;;;;;2.95;1.20;;;;;;;24.65;57.00;99302.66;5115128;28;20194;-77
2023/10/25 10:29:43;;;;;;;1.42;1.27;;;;;;;24.63;55.29;99307.19;5115550;28;20193;-80
2023/10/25 10:32:11;;;;;;;3.40;1.83;;;;;;;24.69;53.83;99290.94;5115997;28;20722;-81
2023/10/25 10:34:44;;;;;;;1.23;1.10;;;;;;;24.96;53.32;99316.00;5115680;28;20190;-80
2023/10/25 10:37:13;;;;;;;4.72;1.92;;;;;;;25.06;52.69;99306.56;5115321;28;20775;-81
2023/10/25 10:40:14;;;;;;;4.15;2.28;;;;;;;25.08;51.85;99303.81;5114760;28;20626;-80
2023/10/25 10:42:43;;;;;;;8.40;1.73;;;;;;;24.95;51.48;99311.63;5073466;28;20191;-81
2023/10/25 10:45:16;;;;;;;3.80;1.98;;;;;;;24.69;51.84;99313.03;5071593;28;20195;-79
2023/10/25 10:47:44;;;;;;;3.88;1.10;;;;;;;24.82;51.31;99309.72;5072024;28;20202;-81
2023/10/25 10:50:13;;;;;;;7.93;2.97;;;;;;;24.41;52.57;99319.91;5071943;28;20771;-76
2023/10/25 10:52:40;;;;;;;5.38;2.05;;;;;;;24.53;52.49;99287.44;5071627;28;20191;-78
2023/10/25 10:55:08;;;;;;;3.58;1.13;;;;;;;24.81;52.57;99322.09;5071735;28;20280;-78
2023/10/25 10:57:36;;;;;;;4.32;1.45;;;;;;;24.87;52.25;99329.75;5071359;28;20265;-77
2023/10/25 11:00:08;;;;;;;3.70;1.60;;;;;;;25.14;52.01;99328.22;5071195;28;20293;-77
2023/10/25 11:02:36;;;;;;;2.50;0.93;;;;;;;25.13;51.21;99334.47;5071338;28;20290;-78
2023/10/25 11:05:03;;;;;;;1.65;1.40;;;;;;;24.85;51.66;99329.00;5071140;28;20290;-79
2023/10/25 11:07:30;;;;;;;2.55;1.42;;;;;;;24.81;52.37;99300.88;5071472;28;20209;-81
2023/10/25 11:09:56;;;;;;;4.10;1.65;;;;;;;24.58;52.28;99306.59;5071484;28;20203;-78
2023/10/25 11:12:24;;;;;;;5.20;1.40;;;;;;;24.84;52.49;99327.28;5071570;28;20203;-80
2023/10/25 11:14:51;;;;;;;2.80;1.23;;;;;;;24.28;52.41;99231.41;5038146;28;20686;-79
2023/10/25 11:17:20;;;;;;;5.32;1.45;;;;;;;24.64;52.91;99308.94;5037792;28;20276;-79
2023/10/25 11:19:48;;;;;;;4.75;1.48;;;;;;;24.59;52.46;99316.25;5088712;28;20197;-78
2023/10/25 11:22:15;;;;;;;6.22;1.88;;;;;;;24.65;53.06;99310.63;5113901;28;20214;-76
2023/10/25 11:24:42;;;;;;;2.15;0.90;;;;;;;24.56;53.26;99311.13;5113833;28;20197;-76
2023/10/25 11:27:09;;;;;;;3.83;1.52;;;;;;;24.30;53.61;99295.75;5114251;28;20201;-80
2023/10/25 11:29:37;;;;;;;2.63;1.13;;;;;;;24.26;53.46;99296.91;5114133;28;20204;-77
2023/10/25 11:32:11;;;;;;;3.10;1.23;;;;;;;24.35;53.78;99304.34;5113831;28;20196;-80
2023/10/25 11:34:42;;;;;;;3.45;2.47;;;;;;;24.49;54.07;99302.66;5113793;28;20615;-79